sensor_id;sensor_type;location;lat;lon;timestamp;temperature;humidity
78514;SHT31;67814;51.976;5.810;2023-06-01T00:01:16;14.4;64.3
78514;SHT31;67814;51.976;5.810;2023-06-01T00:03:47;14.4;64.1
78514;SHT31;67814;51.976;5.810;2023-06-01T00:06:17;14.4;64.1
78514;SHT31;67814;51.976;5.810;2023-06-01T00:08:47;14.3;64.2
78514;SHT31;67814;51.976;5.810;2023-06-01T00:11:15;14.2;64.1
78514;SHT31;67814;51.976;5.810;2023-06-01T00:13:44;14.2;64.2
78514;SHT31;67814;51.976;5.810;2023-06-01T00:16:13;14.2;64.4
78514;SHT31;67814;51.976;5.810;2023-06-01T00:18:41;14.1;64.5
78514;SHT31;67814;51.976;5.810;2023-06-01T00:21:11;14.1;64.3
78514;SHT31;67814;51.976;5.810;2023-06-01T00:23:42;14.0;64.3
78514;SHT31;67814;51.976;5.810;2023-06-01T00:26:11;14.0;64.4
78514;SHT31;67814;51.976;5.810;2023-06-01T00:28:42;14.0;64.5
78514;SHT31;67814;51.976;5.810;2023-06-01T00:31:10;13.9;64.6
78514;SHT31;67814;51.976;5.810;2023-06-01T00:33:41;13.9;64.7
78514;SHT31;67814;51.976;5.810;2023-06-01T00:36:09;13.9;64.8
78514;SHT31;67814;51.976;5.810;2023-06-01T00:38:38;13.9;64.8
78514;SHT31;67814;51.976;5.810;2023-06-01T00:41:06;13.9;65.3
78514;SHT31;67814;51.976;5.810;2023-06-01T00:43:35;13.9;65.0
78514;SHT31;67814;51.976;5.810;2023-06-01T00:46:04;13.9;65.1
78514;SHT31;67814;51.976;5.810;2023-06-01T00:48:33;13.9;65.2
78514;SHT31;67814;51.976;5.810;2023-06-01T00:51:03;13.9;65.0
78514;SHT31;67814;51.976;5.810;2023-06-01T00:53:31;13.9;64.9
78514;SHT31;67814;51.976;5.810;2023-06-01T00:56:02;13.9;64.9
78514;SHT31;67814;51.976;5.810;2023-06-01T00:58:31;13.9;64.9
78514;SHT31;67814;51.976;5.810;2023-06-01T01:00:59;13.9;64.7
78514;SHT31;67814;51.976;5.810;2023-06-01T01:03:28;13.9;64.9
78514;SHT31;67814;51.976;5.810;2023-06-01T01:06:07;13.9;64.8
78514;SHT31;67814;51.976;5.810;2023-06-01T01:08:46;14.0;65.2
78514;SHT31;67814;51.976;5.810;2023-06-01T01:11:21;14.0;64.7
78514;SHT31;67814;51.976;5.810;2023-06-01T01:14:05;14.0;64.5
78514;SHT31;67814;51.976;5.810;2023-06-01T01:16:34;14.0;64.3
78514;SHT31;67814;51.976;5.810;2023-06-01T01:19:14;14.0;64.3
78514;SHT31;67814;51.976;5.810;2023-06-01T01:21:57;13.9;64.5
78514;SHT31;67814;51.976;5.810;2023-06-01T01:24:41;13.9;64.4
78514;SHT31;67814;51.976;5.810;2023-06-01T01:27:23;13.9;64.6
78514;SHT31;67814;51.976;5.810;2023-06-01T01:29:54;13.8;65.0
78514;SHT31;67814;51.976;5.810;2023-06-01T01:32:26;13.8;65.7
78514;SHT31;67814;51.976;5.810;2023-06-01T01:34:55;13.8;65.1
78514;SHT31;67814;51.976;5.810;2023-06-01T01:37:25;13.8;64.9
78514;SHT31;67814;51.976;5.810;2023-06-01T01:39:56;13.8;65.1
78514;SHT31;67814;51.976;5.810;2023-06-01T01:42:24;13.7;65.3
78514;SHT31;67814;51.976;5.810;2023-06-01T01:44:54;13.7;65.3
78514;SHT31;67814;51.976;5.810;2023-06-01T01:47:33;13.7;65.3
78514;SHT31;67814;51.976;5.810;2023-06-01T01:50:05;13.8;65.0
78514;SHT31;67814;51.976;5.810;2023-06-01T01:52:38;13.7;65.0
78514;SHT31;67814;51.976;5.810;2023-06-01T01:55:09;13.7;65.0
78514;SHT31;67814;51.976;5.810;2023-06-01T01:57:39;13.7;65.2
78514;SHT31;67814;51.976;5.810;2023-06-01T02:00:09;13.6;65.7
78514;SHT31;67814;51.976;5.810;2023-06-01T02:02:40;13.6;65.5
78514;SHT31;67814;51.976;5.810;2023-06-01T02:05:09;13.6;65.7
78514;SHT31;67814;51.976;5.810;2023-06-01T02:07:37;13.6;65.5
78514;SHT31;67814;51.976;5.810;2023-06-01T02:10:07;13.6;65.7
78514;SHT31;67814;51.976;5.810;2023-06-01T02:12:36;13.6;65.7
78514;SHT31;67814;51.976;5.810;2023-06-01T02:15:05;13.6;65.6
78514;SHT31;67814;51.976;5.810;2023-06-01T02:17:34;13.6;65.6
78514;SHT31;67814;51.976;5.810;2023-06-01T02:20:04;13.6;65.5
78514;SHT31;67814;51.976;5.810;2023-06-01T02:22:33;13.6;65.6
78514;SHT31;67814;51.976;5.810;2023-06-01T02:25:01;13.6;65.5
78514;SHT31;67814;51.976;5.810;2023-06-01T02:27:31;13.7;65.4
78514;SHT31;67814;51.976;5.810;2023-06-01T02:30:00;13.7;65.2
78514;SHT31;67814;51.976;5.810;2023-06-01T02:32:29;13.7;65.1
78514;SHT31;67814;51.976;5.810;2023-06-01T02:34:58;13.7;64.9
78514;SHT31;67814;51.976;5.810;2023-06-01T02:37:29;13.7;65.0
78514;SHT31;67814;51.976;5.810;2023-06-01T02:39:57;13.7;64.8
78514;SHT31;67814;51.976;5.810;2023-06-01T02:42:26;13.7;65.0
78514;SHT31;67814;51.976;5.810;2023-06-01T02:44:57;13.7;64.9
78514;SHT31;67814;51.976;5.810;2023-06-01T02:47:25;13.7;64.5
78514;SHT31;67814;51.976;5.810;2023-06-01T02:49:53;13.7;64.4
78514;SHT31;67814;51.976;5.810;2023-06-01T02:52:22;13.7;64.7
78514;SHT31;67814;51.976;5.810;2023-06-01T02:54:51;13.7;64.3
78514;SHT31;67814;51.976;5.810;2023-06-01T02:57:19;13.7;64.2
78514;SHT31;67814;51.976;5.810;2023-06-01T02:59:47;13.6;64.3
78514;SHT31;67814;51.976;5.810;2023-06-01T03:02:17;13.6;64.5
78514;SHT31;67814;51.976;5.810;2023-06-01T03:04:46;13.5;64.5
78514;SHT31;67814;51.976;5.810;2023-06-01T03:07:15;13.5;64.7
78514;SHT31;67814;51.976;5.810;2023-06-01T03:09:43;13.5;64.4
78514;SHT31;67814;51.976;5.810;2023-06-01T03:12:12;13.5;64.4
78514;SHT31;67814;51.976;5.810;2023-06-01T03:14:42;13.5;64.5
78514;SHT31;67814;51.976;5.810;2023-06-01T03:17:11;13.5;64.4
78514;SHT31;67814;51.976;5.810;2023-06-01T03:19:39;13.5;64.3
78514;SHT31;67814;51.976;5.810;2023-06-01T03:22:08;13.5;64.3
78514;SHT31;67814;51.976;5.810;2023-06-01T03:24:36;13.5;64.3
78514;SHT31;67814;51.976;5.810;2023-06-01T03:27:08;13.5;64.3
78514;SHT31;67814;51.976;5.810;2023-06-01T03:29:37;13.5;64.1
78514;SHT31;67814;51.976;5.810;2023-06-01T03:32:06;13.6;64.3
78514;SHT31;67814;51.976;5.810;2023-06-01T03:34:35;13.6;64.0
78514;SHT31;67814;51.976;5.810;2023-06-01T03:37:07;13.6;63.9
78514;SHT31;67814;51.976;5.810;2023-06-01T03:39:36;13.6;63.8
78514;SHT31;67814;51.976;5.810;2023-06-01T03:42:06;13.5;63.9
78514;SHT31;67814;51.976;5.810;2023-06-01T03:44:35;13.5;63.9
78514;SHT31;67814;51.976;5.810;2023-06-01T03:47:04;13.5;64.0
78514;SHT31;67814;51.976;5.810;2023-06-01T03:49:33;13.4;64.1
78514;SHT31;67814;51.976;5.810;2023-06-01T03:52:01;13.4;64.1
78514;SHT31;67814;51.976;5.810;2023-06-01T03:54:30;13.4;64.3
78514;SHT31;67814;51.976;5.810;2023-06-01T03:56:58;13.4;64.5
78514;SHT31;67814;51.976;5.810;2023-06-01T03:59:27;13.4;64.2
78514;SHT31;67814;51.976;5.810;2023-06-01T04:01:58;13.4;64.3
78514;SHT31;67814;51.976;5.810;2023-06-01T04:04:29;13.4;64.4
78514;SHT31;67814;51.976;5.810;2023-06-01T04:06:59;13.5;64.4
78514;SHT31;67814;51.976;5.810;2023-06-01T04:09:29;13.5;64.3
78514;SHT31;67814;51.976;5.810;2023-06-01T04:11:58;13.6;64.1
78514;SHT31;67814;51.976;5.810;2023-06-01T04:14:27;13.6;64.2
78514;SHT31;67814;51.976;5.810;2023-06-01T04:16:56;13.6;63.8
78514;SHT31;67814;51.976;5.810;2023-06-01T04:19:24;13.6;64.3
78514;SHT31;67814;51.976;5.810;2023-06-01T04:21:53;13.6;64.6
78514;SHT31;67814;51.976;5.810;2023-06-01T04:24:23;13.6;64.4
78514;SHT31;67814;51.976;5.810;2023-06-01T04:26:52;13.7;63.6
78514;SHT31;67814;51.976;5.810;2023-06-01T04:29:24;13.7;63.1
78514;SHT31;67814;51.976;5.810;2023-06-01T04:31:53;13.7;63.4
78514;SHT31;67814;51.976;5.810;2023-06-01T04:34:22;13.7;63.0
78514;SHT31;67814;51.976;5.810;2023-06-01T04:36:52;13.7;63.1
78514;SHT31;67814;51.976;5.810;2023-06-01T04:39:20;13.8;63.8
78514;SHT31;67814;51.976;5.810;2023-06-01T04:41:49;13.8;63.0
78514;SHT31;67814;51.976;5.810;2023-06-01T04:44:17;13.8;62.5
78514;SHT31;67814;51.976;5.810;2023-06-01T04:46:49;13.8;63.0
78514;SHT31;67814;51.976;5.810;2023-06-01T04:49:20;13.8;63.2
78514;SHT31;67814;51.976;5.810;2023-06-01T04:51:48;13.8;62.8
78514;SHT31;67814;51.976;5.810;2023-06-01T04:54:18;13.8;62.5
78514;SHT31;67814;51.976;5.810;2023-06-01T04:56:46;13.8;63.0
78514;SHT31;67814;51.976;5.810;2023-06-01T04:59:15;13.8;63.0
78514;SHT31;67814;51.976;5.810;2023-06-01T05:01:43;13.8;63.9
78514;SHT31;67814;51.976;5.810;2023-06-01T05:04:12;13.8;63.1
78514;SHT31;67814;51.976;5.810;2023-06-01T05:06:40;13.9;62.7
78514;SHT31;67814;51.976;5.810;2023-06-01T05:09:09;13.9;62.7
78514;SHT31;67814;51.976;5.810;2023-06-01T05:11:39;14.0;62.3
78514;SHT31;67814;51.976;5.810;2023-06-01T05:14:08;14.0;62.1
78514;SHT31;67814;51.976;5.810;2023-06-01T05:16:36;14.0;62.2
78514;SHT31;67814;51.976;5.810;2023-06-01T05:19:05;14.0;61.8
78514;SHT31;67814;51.976;5.810;2023-06-01T05:21:33;14.1;61.7
78514;SHT31;67814;51.976;5.810;2023-06-01T05:24:02;14.0;61.9
78514;SHT31;67814;51.976;5.810;2023-06-01T05:26:33;14.0;62.2
78514;SHT31;67814;51.976;5.810;2023-06-01T05:29:02;14.0;62.7
78514;SHT31;67814;51.976;5.810;2023-06-01T05:31:31;13.9;62.9
78514;SHT31;67814;51.976;5.810;2023-06-01T05:34:00;14.0;62.9
78514;SHT31;67814;51.976;5.810;2023-06-01T05:36:28;14.0;62.2
78514;SHT31;67814;51.976;5.810;2023-06-01T05:38:58;14.0;62.0
78514;SHT31;67814;51.976;5.810;2023-06-01T05:41:28;14.0;62.8
78514;SHT31;67814;51.976;5.810;2023-06-01T05:43:57;14.1;62.0
78514;SHT31;67814;51.976;5.810;2023-06-01T05:46:26;14.1;61.1
78514;SHT31;67814;51.976;5.810;2023-06-01T05:48:54;14.2;61.1
78514;SHT31;67814;51.976;5.810;2023-06-01T05:51:23;14.2;60.7
78514;SHT31;67814;51.976;5.810;2023-06-01T05:53:52;14.2;61.4
78514;SHT31;67814;51.976;5.810;2023-06-01T05:56:20;14.3;60.9
78514;SHT31;67814;51.976;5.810;2023-06-01T05:58:49;14.3;60.8
78514;SHT31;67814;51.976;5.810;2023-06-01T06:01:19;14.4;60.5
78514;SHT31;67814;51.976;5.810;2023-06-01T06:03:48;14.4;59.9
78514;SHT31;67814;51.976;5.810;2023-06-01T06:06:17;14.5;59.7
78514;SHT31;67814;51.976;5.810;2023-06-01T06:08:45;14.5;59.7
78514;SHT31;67814;51.976;5.810;2023-06-01T06:11:14;14.5;59.7
78514;SHT31;67814;51.976;5.810;2023-06-01T06:13:42;14.5;59.6
78514;SHT31;67814;51.976;5.810;2023-06-01T06:16:11;14.6;59.8
78514;SHT31;67814;51.976;5.810;2023-06-01T06:18:42;14.6;60.3
78514;SHT31;67814;51.976;5.810;2023-06-01T06:21:10;14.7;59.9
78514;SHT31;67814;51.976;5.810;2023-06-01T06:23:39;14.7;59.4
78514;SHT31;67814;51.976;5.810;2023-06-01T06:26:09;14.8;59.3
78514;SHT31;67814;51.976;5.810;2023-06-01T06:28:37;14.9;59.0
78514;SHT31;67814;51.976;5.810;2023-06-01T06:31:06;14.9;58.7
78514;SHT31;67814;51.976;5.810;2023-06-01T06:33:35;14.9;58.7
78514;SHT31;67814;51.976;5.810;2023-06-01T06:36:04;14.9;58.7
78514;SHT31;67814;51.976;5.810;2023-06-01T06:38:32;15.0;59.2
78514;SHT31;67814;51.976;5.810;2023-06-01T06:41:01;15.0;59.2
78514;SHT31;67814;51.976;5.810;2023-06-01T06:43:29;15.1;59.1
78514;SHT31;67814;51.976;5.810;2023-06-01T06:45:58;15.1;59.5
78514;SHT31;67814;51.976;5.810;2023-06-01T06:48:28;15.3;59.7
78514;SHT31;67814;51.976;5.810;2023-06-01T06:50:57;15.4;59.2
78514;SHT31;67814;51.976;5.810;2023-06-01T06:53:26;15.6;57.8
78514;SHT31;67814;51.976;5.810;2023-06-01T06:55:54;15.7;57.3
78514;SHT31;67814;51.976;5.810;2023-06-01T06:58:23;15.8;56.7
78514;SHT31;67814;51.976;5.810;2023-06-01T07:00:52;15.8;56.8
78514;SHT31;67814;51.976;5.810;2023-06-01T07:03:21;15.9;56.1
78514;SHT31;67814;51.976;5.810;2023-06-01T07:05:49;16.1;56.0
78514;SHT31;67814;51.976;5.810;2023-06-01T07:08:18;16.3;55.2
78514;SHT31;67814;51.976;5.810;2023-06-01T07:10:49;16.5;54.7
78514;SHT31;67814;51.976;5.810;2023-06-01T07:13:17;16.8;54.1
78514;SHT31;67814;51.976;5.810;2023-06-01T07:15:46;17.1;53.3
78514;SHT31;67814;51.976;5.810;2023-06-01T07:18:15;17.5;52.6
78514;SHT31;67814;51.976;5.810;2023-06-01T07:20:43;17.8;53.6
78514;SHT31;67814;51.976;5.810;2023-06-01T07:23:11;18.2;52.5
78514;SHT31;67814;51.976;5.810;2023-06-01T07:25:42;18.8;50.7
78514;SHT31;67814;51.976;5.810;2023-06-01T07:28:10;19.4;47.7
78514;SHT31;67814;51.976;5.810;2023-06-01T07:30:41;19.8;48.2
78514;SHT31;67814;51.976;5.810;2023-06-01T07:33:10;20.0;45.1
78514;SHT31;67814;51.976;5.810;2023-06-01T07:35:39;20.1;45.1
78514;SHT31;67814;51.976;5.810;2023-06-01T07:38:07;20.1;45.2
78514;SHT31;67814;51.976;5.810;2023-06-01T07:40:37;20.0;45.1
78514;SHT31;67814;51.976;5.810;2023-06-01T07:43:06;20.1;45.0
78514;SHT31;67814;51.976;5.810;2023-06-01T07:45:34;20.0;43.9
78514;SHT31;67814;51.976;5.810;2023-06-01T07:48:03;20.0;44.0
78514;SHT31;67814;51.976;5.810;2023-06-01T07:50:32;19.9;44.1
78514;SHT31;67814;51.976;5.810;2023-06-01T07:53:01;19.7;45.2
78514;SHT31;67814;51.976;5.810;2023-06-01T07:55:29;19.5;46.3
78514;SHT31;67814;51.976;5.810;2023-06-01T07:57:58;19.4;46.2
78514;SHT31;67814;51.976;5.810;2023-06-01T08:00:27;19.3;47.3
78514;SHT31;67814;51.976;5.810;2023-06-01T08:02:55;19.2;47.2
78514;SHT31;67814;51.976;5.810;2023-06-01T08:05:25;19.2;47.6
78514;SHT31;67814;51.976;5.810;2023-06-01T08:07:53;19.1;46.3
78514;SHT31;67814;51.976;5.810;2023-06-01T08:10:24;19.1;47.1
78514;SHT31;67814;51.976;5.810;2023-06-01T08:12:53;19.0;46.7
78514;SHT31;67814;51.976;5.810;2023-06-01T08:15:24;18.9;46.8
78514;SHT31;67814;51.976;5.810;2023-06-01T08:17:55;18.9;46.9
78514;SHT31;67814;51.976;5.810;2023-06-01T08:20:24;18.8;46.7
78514;SHT31;67814;51.976;5.810;2023-06-01T08:22:54;18.7;46.9
78514;SHT31;67814;51.976;5.810;2023-06-01T08:25:22;18.6;47.7
78514;SHT31;67814;51.976;5.810;2023-06-01T08:27:51;18.5;48.1
78514;SHT31;67814;51.976;5.810;2023-06-01T08:30:20;18.5;48.8
78514;SHT31;67814;51.976;5.810;2023-06-01T08:32:48;18.4;48.1
78514;SHT31;67814;51.976;5.810;2023-06-01T08:35:17;18.4;48.8
78514;SHT31;67814;51.976;5.810;2023-06-01T08:37:48;18.4;49.5
78514;SHT31;67814;51.976;5.810;2023-06-01T08:40:17;18.4;48.2
78514;SHT31;67814;51.976;5.810;2023-06-01T08:42:57;18.4;48.9
78514;SHT31;67814;51.976;5.810;2023-06-01T08:45:25;18.4;49.6
78514;SHT31;67814;51.976;5.810;2023-06-01T08:47:55;18.4;48.7
78514;SHT31;67814;51.976;5.810;2023-06-01T08:50:26;18.4;48.5
78514;SHT31;67814;51.976;5.810;2023-06-01T08:52:56;18.5;47.7
78514;SHT31;67814;51.976;5.810;2023-06-01T08:55:25;18.5;47.5
78514;SHT31;67814;51.976;5.810;2023-06-01T08:57:54;18.5;47.2
78514;SHT31;67814;51.976;5.810;2023-06-01T09:00:24;18.5;47.7
78514;SHT31;67814;51.976;5.810;2023-06-01T09:02:53;18.5;47.2
78514;SHT31;67814;51.976;5.810;2023-06-01T09:05:21;18.4;48.7
78514;SHT31;67814;51.976;5.810;2023-06-01T09:07:50;18.4;48.3
78514;SHT31;67814;51.976;5.810;2023-06-01T09:10:24;18.4;49.8
78514;SHT31;67814;51.976;5.810;2023-06-01T09:12:54;18.5;48.9
78514;SHT31;67814;51.976;5.810;2023-06-01T09:15:23;18.5;47.0
78514;SHT31;67814;51.976;5.810;2023-06-01T09:18:03;18.6;47.4
78514;SHT31;67814;51.976;5.810;2023-06-01T09:20:27;18.6;49.1
78514;SHT31;67814;51.976;5.810;2023-06-01T09:22:58;18.6;49.1
78514;SHT31;67814;51.976;5.810;2023-06-01T09:25:29;18.7;47.3
78514;SHT31;67814;51.976;5.810;2023-06-01T09:28:00;18.7;48.5
78514;SHT31;67814;51.976;5.810;2023-06-01T09:30:39;18.8;48.2
78514;SHT31;67814;51.976;5.810;2023-06-01T09:33:10;18.9;46.8
78514;SHT31;67814;51.976;5.810;2023-06-01T09:35:43;19.0;46.7
78514;SHT31;67814;51.976;5.810;2023-06-01T09:38:22;19.1;46.8
78514;SHT31;67814;51.976;5.810;2023-06-01T09:40:58;19.1;46.4
78514;SHT31;67814;51.976;5.810;2023-06-01T09:43:27;19.1;47.1
78514;SHT31;67814;51.976;5.810;2023-06-01T09:46:07;19.1;47.8
78514;SHT31;67814;51.976;5.810;2023-06-01T09:48:36;19.1;45.9
78514;SHT31;67814;51.976;5.810;2023-06-01T09:51:21;19.2;45.2
78514;SHT31;67814;51.976;5.810;2023-06-01T09:53:55;19.2;45.6
78514;SHT31;67814;51.976;5.810;2023-06-01T09:56:24;19.2;46.3
78514;SHT31;67814;51.976;5.810;2023-06-01T09:58:58;19.2;46.2
78514;SHT31;67814;51.976;5.810;2023-06-01T10:01:30;19.3;46.8
78514;SHT31;67814;51.976;5.810;2023-06-01T10:04:00;19.3;46.5
78514;SHT31;67814;51.976;5.810;2023-06-01T10:06:31;19.4;47.1
78514;SHT31;67814;51.976;5.810;2023-06-01T10:09:02;19.5;46.3
78514;SHT31;67814;51.976;5.810;2023-06-01T10:11:31;19.5;45.5
78514;SHT31;67814;51.976;5.810;2023-06-01T10:14:01;19.6;44.4
78514;SHT31;67814;51.976;5.810;2023-06-01T10:16:31;19.7;44.7
78514;SHT31;67814;51.976;5.810;2023-06-01T10:19:01;19.7;46.7
78514;SHT31;67814;51.976;5.810;2023-06-01T10:21:31;19.8;44.6
78514;SHT31;67814;51.976;5.810;2023-06-01T10:24:00;19.8;45.8
78514;SHT31;67814;51.976;5.810;2023-06-01T10:26:32;19.8;45.3
78514;SHT31;67814;51.976;5.810;2023-06-01T10:29:04;19.8;45.6
78514;SHT31;67814;51.976;5.810;2023-06-01T10:31:34;19.9;45.1
78514;SHT31;67814;51.976;5.810;2023-06-01T10:34:05;19.9;45.2
78514;SHT31;67814;51.976;5.810;2023-06-01T10:39:38;20.0;45.3
78514;SHT31;67814;51.976;5.810;2023-06-01T10:42:38;20.1;45.1
78514;SHT31;67814;51.976;5.810;2023-06-01T10:46:14;20.1;45.4
78514;SHT31;67814;51.976;5.810;2023-06-01T10:48:57;20.2;45.3
78514;SHT31;67814;51.976;5.810;2023-06-01T10:51:26;20.3;45.3
78514;SHT31;67814;51.976;5.810;2023-06-01T10:56:48;20.4;43.4
78514;SHT31;67814;51.976;5.810;2023-06-01T10:59:22;20.5;43.3
78514;SHT31;67814;51.976;5.810;2023-06-01T11:01:51;20.5;43.4
78514;SHT31;67814;51.976;5.810;2023-06-01T11:04:37;20.5;44.0
78514;SHT31;67814;51.976;5.810;2023-06-01T11:07:37;20.5;44.6
78514;SHT31;67814;51.976;5.810;2023-06-01T11:10:08;20.5;44.4
78514;SHT31;67814;51.976;5.810;2023-06-01T11:13:13;20.6;45.1
78514;SHT31;67814;51.976;5.810;2023-06-01T11:18:44;20.6;44.8
78514;SHT31;67814;51.976;5.810;2023-06-01T11:21:18;20.7;43.8
78514;SHT31;67814;51.976;5.810;2023-06-01T11:23:48;20.7;43.8
78514;SHT31;67814;51.976;5.810;2023-06-01T11:26:18;20.7;44.0
78514;SHT31;67814;51.976;5.810;2023-06-01T11:28:48;20.7;44.0
78514;SHT31;67814;51.976;5.810;2023-06-01T11:31:18;20.8;43.8
78514;SHT31;67814;51.976;5.810;2023-06-01T11:33:50;20.8;44.4
78514;SHT31;67814;51.976;5.810;2023-06-01T11:36:26;20.8;42.5
78514;SHT31;67814;51.976;5.810;2023-06-01T11:38:55;20.8;43.5
78514;SHT31;67814;51.976;5.810;2023-06-01T11:41:24;20.8;43.7
78514;SHT31;67814;51.976;5.810;2023-06-01T11:43:56;20.8;43.0
78514;SHT31;67814;51.976;5.810;2023-06-01T11:46:25;20.8;43.2
78514;SHT31;67814;51.976;5.810;2023-06-01T11:49:02;20.8;43.0
78514;SHT31;67814;51.976;5.810;2023-06-01T11:51:34;20.8;43.7
78514;SHT31;67814;51.976;5.810;2023-06-01T11:54:05;20.9;43.7
78514;SHT31;67814;51.976;5.810;2023-06-01T11:56:36;20.9;42.8
78514;SHT31;67814;51.976;5.810;2023-06-01T11:59:06;21.0;42.4
78514;SHT31;67814;51.976;5.810;2023-06-01T12:01:44;21.0;42.4
78514;SHT31;67814;51.976;5.810;2023-06-01T12:04:17;21.1;42.8
78514;SHT31;67814;51.976;5.810;2023-06-01T12:06:47;21.1;43.4
78514;SHT31;67814;51.976;5.810;2023-06-01T12:09:16;21.2;43.3
78514;SHT31;67814;51.976;5.810;2023-06-01T12:11:47;21.2;42.2
78514;SHT31;67814;51.976;5.810;2023-06-01T12:14:18;21.3;42.3
78514;SHT31;67814;51.976;5.810;2023-06-01T12:16:53;21.4;42.9
78514;SHT31;67814;51.976;5.810;2023-06-01T12:19:23;21.4;42.6
78514;SHT31;67814;51.976;5.810;2023-06-01T12:21:54;21.5;41.9
78514;SHT31;67814;51.976;5.810;2023-06-01T12:24:30;21.6;41.6
78514;SHT31;67814;51.976;5.810;2023-06-01T12:27:00;21.7;40.3
78514;SHT31;67814;51.976;5.810;2023-06-01T12:29:40;21.7;39.9
78514;SHT31;67814;51.976;5.810;2023-06-01T12:32:11;21.7;41.1
78514;SHT31;67814;51.976;5.810;2023-06-01T12:34:42;21.7;40.4
78514;SHT31;67814;51.976;5.810;2023-06-01T12:37:16;21.8;39.8
78514;SHT31;67814;51.976;5.810;2023-06-01T12:39:55;21.8;39.9
78514;SHT31;67814;51.976;5.810;2023-06-01T12:42:35;21.7;40.6
78514;SHT31;67814;51.976;5.810;2023-06-01T12:45:06;21.7;41.0
78514;SHT31;67814;51.976;5.810;2023-06-01T12:47:39;21.7;41.1
78514;SHT31;67814;51.976;5.810;2023-06-01T12:50:10;21.7;41.5
78514;SHT31;67814;51.976;5.810;2023-06-01T12:52:41;21.7;41.8
78514;SHT31;67814;51.976;5.810;2023-06-01T12:55:12;21.7;42.5
78514;SHT31;67814;51.976;5.810;2023-06-01T12:57:41;21.7;41.9
78514;SHT31;67814;51.976;5.810;2023-06-01T13:00:10;21.7;43.0
78514;SHT31;67814;51.976;5.810;2023-06-01T13:02:41;21.7;42.6
78514;SHT31;67814;51.976;5.810;2023-06-01T13:05:12;21.7;43.2
78514;SHT31;67814;51.976;5.810;2023-06-01T13:07:41;21.8;42.1
78514;SHT31;67814;51.976;5.810;2023-06-01T13:10:11;21.8;42.7
78514;SHT31;67814;51.976;5.810;2023-06-01T13:12:40;21.8;43.0
78514;SHT31;67814;51.976;5.810;2023-06-01T13:15:09;21.8;42.7
78514;SHT31;67814;51.976;5.810;2023-06-01T13:17:38;21.9;43.0
78514;SHT31;67814;51.976;5.810;2023-06-01T13:20:08;21.9;43.5
78514;SHT31;67814;51.976;5.810;2023-06-01T13:22:38;21.9;43.0
78514;SHT31;67814;51.976;5.810;2023-06-01T13:25:07;21.9;42.7
78514;SHT31;67814;51.976;5.810;2023-06-01T13:27:36;21.9;42.3
78514;SHT31;67814;51.976;5.810;2023-06-01T13:30:05;21.9;44.1
78514;SHT31;67814;51.976;5.810;2023-06-01T13:32:34;21.9;44.2
78514;SHT31;67814;51.976;5.810;2023-06-01T13:35:03;21.9;44.6
78514;SHT31;67814;51.976;5.810;2023-06-01T13:37:34;21.8;45.2
78514;SHT31;67814;51.976;5.810;2023-06-01T13:40:04;21.8;44.8
78514;SHT31;67814;51.976;5.810;2023-06-01T13:42:33;21.7;45.1
78514;SHT31;67814;51.976;5.810;2023-06-01T13:45:02;21.6;45.0
78514;SHT31;67814;51.976;5.810;2023-06-01T13:47:30;21.5;45.0
78514;SHT31;67814;51.976;5.810;2023-06-01T13:49:59;21.4;45.5
78514;SHT31;67814;51.976;5.810;2023-06-01T13:52:27;21.3;46.4
78514;SHT31;67814;51.976;5.810;2023-06-01T13:54:56;21.2;46.1
78514;SHT31;67814;51.976;5.810;2023-06-01T13:57:25;21.1;46.6
78514;SHT31;67814;51.976;5.810;2023-06-01T13:59:53;21.1;46.3
78514;SHT31;67814;51.976;5.810;2023-06-01T14:02:22;21.0;46.5
78514;SHT31;67814;51.976;5.810;2023-06-01T14:04:50;20.9;46.2
78514;SHT31;67814;51.976;5.810;2023-06-01T14:07:19;20.9;46.3
78514;SHT31;67814;51.976;5.810;2023-06-01T14:09:48;20.8;46.4
78514;SHT31;67814;51.976;5.810;2023-06-01T14:12:16;20.7;46.6
78514;SHT31;67814;51.976;5.810;2023-06-01T14:14:45;20.6;47.0
78514;SHT31;67814;51.976;5.810;2023-06-01T14:17:13;20.6;47.6
78514;SHT31;67814;51.976;5.810;2023-06-01T14:19:42;20.6;46.5
78514;SHT31;67814;51.976;5.810;2023-06-01T14:22:11;20.6;47.1
78514;SHT31;67814;51.976;5.810;2023-06-01T14:24:39;20.5;46.5
78514;SHT31;67814;51.976;5.810;2023-06-01T14:27:08;20.5;45.9
78514;SHT31;67814;51.976;5.810;2023-06-01T14:29:37;20.5;46.3
78514;SHT31;67814;51.976;5.810;2023-06-01T14:32:07;20.5;46.6
78514;SHT31;67814;51.976;5.810;2023-06-01T14:34:36;20.5;46.8
78514;SHT31;67814;51.976;5.810;2023-06-01T14:37:05;20.5;46.2
78514;SHT31;67814;51.976;5.810;2023-06-01T14:39:37;20.4;45.9
78514;SHT31;67814;51.976;5.810;2023-06-01T14:42:06;20.4;46.2
78514;SHT31;67814;51.976;5.810;2023-06-01T14:44:35;20.4;46.2
78514;SHT31;67814;51.976;5.810;2023-06-01T14:47:03;20.3;46.2
78514;SHT31;67814;51.976;5.810;2023-06-01T14:49:34;20.3;46.9
78514;SHT31;67814;51.976;5.810;2023-06-01T14:52:02;20.3;46.9
78514;SHT31;67814;51.976;5.810;2023-06-01T14:54:31;20.2;47.3
78514;SHT31;67814;51.976;5.810;2023-06-01T14:57:00;20.2;47.4
78514;SHT31;67814;51.976;5.810;2023-06-01T14:59:29;20.2;47.6
78514;SHT31;67814;51.976;5.810;2023-06-01T15:01:59;20.2;47.7
78514;SHT31;67814;51.976;5.810;2023-06-01T15:04:28;20.1;46.5
78514;SHT31;67814;51.976;5.810;2023-06-01T15:06:56;20.1;46.5
78514;SHT31;67814;51.976;5.810;2023-06-01T15:09:24;20.1;46.8
78514;SHT31;67814;51.976;5.810;2023-06-01T15:11:55;20.0;47.7
78514;SHT31;67814;51.976;5.810;2023-06-01T15:14:24;19.9;47.5
78514;SHT31;67814;51.976;5.810;2023-06-01T15:16:53;19.9;48.4
78514;SHT31;67814;51.976;5.810;2023-06-01T15:19:21;19.9;48.1
78514;SHT31;67814;51.976;5.810;2023-06-01T15:21:50;19.9;47.7
78514;SHT31;67814;51.976;5.810;2023-06-01T15:24:18;19.9;47.9
78514;SHT31;67814;51.976;5.810;2023-06-01T15:26:49;19.9;48.0
78514;SHT31;67814;51.976;5.810;2023-06-01T15:29:18;19.9;47.6
78514;SHT31;67814;51.976;5.810;2023-06-01T15:31:46;19.9;47.6
78514;SHT31;67814;51.976;5.810;2023-06-01T15:34:15;19.8;47.8
78514;SHT31;67814;51.976;5.810;2023-06-01T15:36:43;19.8;47.8
78514;SHT31;67814;51.976;5.810;2023-06-01T15:39:12;19.8;47.4
78514;SHT31;67814;51.976;5.810;2023-06-01T15:41:41;19.8;48.0
78514;SHT31;67814;51.976;5.810;2023-06-01T15:44:12;19.8;47.6
78514;SHT31;67814;51.976;5.810;2023-06-01T15:46:44;19.8;46.9
78514;SHT31;67814;51.976;5.810;2023-06-01T15:49:13;19.8;47.7
78514;SHT31;67814;51.976;5.810;2023-06-01T15:51:41;19.8;47.4
78514;SHT31;67814;51.976;5.810;2023-06-01T15:54:10;19.8;48.3
78514;SHT31;67814;51.976;5.810;2023-06-01T15:56:39;19.8;48.6
78514;SHT31;67814;51.976;5.810;2023-06-01T15:59:07;19.9;48.2
78514;SHT31;67814;51.976;5.810;2023-06-01T16:01:36;19.9;47.5
78514;SHT31;67814;51.976;5.810;2023-06-01T16:04:04;19.9;47.4
78514;SHT31;67814;51.976;5.810;2023-06-01T16:06:33;20.0;47.4
78514;SHT31;67814;51.976;5.810;2023-06-01T16:09:01;20.0;47.2
78514;SHT31;67814;51.976;5.810;2023-06-01T16:11:30;20.0;47.8
78514;SHT31;67814;51.976;5.810;2023-06-01T16:13:59;20.0;47.6
78514;SHT31;67814;51.976;5.810;2023-06-01T16:16:28;20.0;46.7
78514;SHT31;67814;51.976;5.810;2023-06-01T16:18:56;20.0;46.2
78514;SHT31;67814;51.976;5.810;2023-06-01T16:21:24;19.9;46.9
78514;SHT31;67814;51.976;5.810;2023-06-01T16:23:53;19.9;46.9
78514;SHT31;67814;51.976;5.810;2023-06-01T16:26:25;19.9;46.0
78514;SHT31;67814;51.976;5.810;2023-06-01T16:28:53;19.8;46.4
78514;SHT31;67814;51.976;5.810;2023-06-01T16:31:24;19.8;46.8